Time;durP1;ratioP1;P1;durP2;ratioP2;P2;SDS_P1;SDS_P2;PMS_P1;PMS_P2;Temp;Humidity;BMP_temperature;BMP_pressure;BME280_temperature;BME280_humidity;BME280_pressure;Samples;Min_cycle;Max_cycle;Signal;HPM_P1;HPM_P2
2021/07/27 00:01:25;;;;;;;5.10;2.40;;;;;;;;;;5048224;28;20530;-74
2021/07/27 00:03:50;;;;;;;4.70;2.27;;;;;;;;;;5048422;28;20455;-75
2021/07/27 00:06:16;;;;;;;5.47;2.23;;;;;;;;;;5031580;28;20144;-75
2021/07/27 00:08:41;;;;;;;5.07;2.27;;;;;;;;;;5014849;28;20069;-75
2021/07/27 00:11:10;;;;;;;4.50;2.27;;;;;;;;;;5031730;28;20095;-75
2021/07/27 00:13:35;;;;;;;4.70;2.20;;;;;;;;;;5031571;28;20423;-75
2021/07/27 00:16:01;;;;;;;5.77;2.27;;;;;;;;;;5052157;28;20028;-75
2021/07/27 00:18:26;;;;;;;4.83;2.10;;;;;;;;;;5036579;28;20434;-75
2021/07/27 00:20:52;;;;;;;4.87;2.20;;;;;;;;;;5035442;28;20773;-75
2021/07/27 00:23:17;;;;;;;5.33;2.20;;;;;;;;;;5034958;28;20369;-75
2021/07/27 00:25:43;;;;;;;3.83;2.00;;;;;;;;;;5036604;28;20056;-75
2021/07/27 00:28:12;;;;;;;5.20;2.25;;;;;;;;;;5018930;28;20025;-75
2021/07/27 00:30:37;;;;;;;4.90;2.17;;;;;;;;;;5019097;28;20102;-75
2021/07/27 00:33:03;;;;;;;4.80;2.17;;;;;;;;;;5016866;28;20480;-75
2021/07/27 00:35:31;;;;;;;4.40;2.10;;;;;;;;;;5016105;28;20026;-75
2021/07/27 00:38:08;;;;;;;4.45;2.00;;;;;;;;;;5029572;28;20037;-75
2021/07/27 00:40:37;;;;;;;4.03;2.22;;;;;;;;;;5035760;28;20392;-75
2021/07/27 00:43:07;;;;;;;6.10;1.80;;;;;;;;;;5035040;28;20152;-75
2021/07/27 00:45:33;;;;;;;4.15;2.10;;;;;;;;;;5036202;28;20022;-75
2021/07/27 00:47:58;;;;;;;5.83;2.70;;;;;;;;;;5018153;28;20146;-74
2021/07/27 00:50:24;;;;;;;5.00;2.20;;;;;;;;;;5050837;28;20049;-75
2021/07/27 00:52:49;;;;;;;4.75;2.40;;;;;;;;;;5034848;28;20396;-74
2021/07/27 00:55:14;;;;;;;5.17;2.20;;;;;;;;;;5035064;28;20067;-74
2021/07/27 00:57:40;;;;;;;4.50;2.20;;;;;;;;;;5034907;28;20041;-75
2021/07/27 01:00:06;;;;;;;3.97;2.03;;;;;;;;;;5018107;28;20067;-75
2021/07/27 01:02:31;;;;;;;4.38;2.05;;;;;;;;;;5018075;28;20064;-75
2021/07/27 01:04:58;;;;;;;5.33;2.30;;;;;;;;;;5034719;28;20040;-74
2021/07/27 01:07:24;;;;;;;4.38;1.92;;;;;;;;;;5034603;28;20021;-75
2021/07/27 01:09:50;;;;;;;5.13;2.10;;;;;;;;;;5035982;28;20492;-74
2021/07/27 01:12:15;;;;;;;3.53;1.90;;;;;;;;;;5034055;28;20052;-74
2021/07/27 01:14:40;;;;;;;4.47;2.03;;;;;;;;;;5034743;28;20121;-75
2021/07/27 01:17:06;;;;;;;3.80;1.80;;;;;;;;;;5034630;28;20065;-74
2021/07/27 01:41:04;;;;;;;4.77;2.00;;;;;;;;;;5034494;28;20068;-75
2021/07/27 01:43:30;;;;;;;3.92;2.00;;;;;;;;;;5048523;28;20037;-75
2021/07/27 01:45:56;;;;;;;4.57;2.00;;;;;;;;;;5050471;28;20033;-75
2021/07/27 01:48:29;;;;;;;4.43;1.93;;;;;;;;;;5034091;28;20025;-75
2021/07/27 01:50:56;;;;;;;4.35;1.98;;;;;;;;;;5034949;28;20029;-75
2021/07/27 01:53:28;;;;;;;4.38;2.10;;;;;;;;;;5050302;28;20041;-75
2021/07/27 01:55:56;;;;;;;5.10;2.00;;;;;;;;;;5049249;28;20036;-74
2021/07/27 01:58:21;;;;;;;5.55;1.95;;;;;;;;;;5033653;28;20033;-74
2021/07/27 02:00:47;;;;;;;4.23;2.07;;;;;;;;;;5033611;28;20072;-74
2021/07/27 02:03:15;;;;;;;5.73;2.00;;;;;;;;;;5017449;28;20066;-75
2021/07/27 02:05:40;;;;;;;4.55;2.10;;;;;;;;;;5033762;28;20022;-74
2021/07/27 02:08:06;;;;;;;3.63;2.10;;;;;;;;;;5050167;28;20061;-75
2021/07/27 02:10:31;;;;;;;6.20;2.53;;;;;;;;;;5034876;28;20053;-75
2021/07/27 02:13:02;;;;;;;5.10;2.13;;;;;;;;;;5049813;28;20029;-75
2021/07/27 02:15:43;;;;;;;4.78;2.00;;;;;;;;;;5033497;28;20032;-74
2021/07/27 02:18:08;;;;;;;4.53;2.03;;;;;;;;;;5030901;28;20428;-75
2021/07/27 02:20:34;;;;;;;5.13;2.00;;;;;;;;;;5017548;28;20112;-75
2021/07/27 02:22:59;;;;;;;4.30;2.00;;;;;;;;;;5049685;28;20028;-75
2021/07/27 02:25:25;;;;;;;4.87;2.03;;;;;;;;;;5050074;28;20610;-74
2021/07/27 02:27:50;;;;;;;4.93;2.13;;;;;;;;;;5049855;28;20079;-75
2021/07/27 02:30:16;;;;;;;5.33;2.00;;;;;;;;;;5033082;28;20052;-74
2021/07/27 02:32:43;;;;;;;4.33;1.80;;;;;;;;;;5000057;28;20041;-74
2021/07/27 02:35:08;;;;;;;4.75;1.98;;;;;;;;;;5032692;28;20030;-74
2021/07/27 02:37:34;;;;;;;4.13;1.97;;;;;;;;;;5032551;28;20032;-75
2021/07/27 02:39:59;;;;;;;5.40;2.30;;;;;;;;;;5033111;28;20029;-74
2021/07/27 02:42:25;;;;;;;4.63;2.20;;;;;;;;;;5049460;28;20033;-74
2021/07/27 02:44:51;;;;;;;4.18;1.95;;;;;;;;;;5049655;28;20037;-75
2021/07/27 02:47:16;;;;;;;4.20;1.87;;;;;;;;;;5033049;28;20460;-74
2021/07/27 02:49:41;;;;;;;4.23;1.80;;;;;;;;;;5032265;28;20056;-75
2021/07/27 02:52:07;;;;;;;4.30;1.93;;;;;;;;;;5032553;28;20052;-75
2021/07/27 02:54:33;;;;;;;6.03;2.00;;;;;;;;;;5032572;28;20064;-75
2021/07/27 02:57:01;;;;;;;5.07;1.98;;;;;;;;;;5033952;28;20061;-74
2021/07/27 02:59:26;;;;;;;3.72;1.80;;;;;;;;;;5016310;28;20033;-74
2021/07/27 03:01:51;;;;;;;4.33;1.80;;;;;;;;;;5032129;28;20457;-75
2021/07/27 03:04:17;;;;;;;5.50;2.27;;;;;;;;;;5033970;28;20064;-74
2021/07/27 03:06:45;;;;;;;4.73;1.93;;;;;;;;;;5049201;28;20057;-75
2021/07/27 03:09:22;;;;;;;5.05;2.08;;;;;;;;;;5032449;28;20374;-75
2021/07/27 03:11:48;;;;;;;;;;;;;;;;;;5047468;28;20091;-75
2021/07/27 03:14:13;;;;;;;3.77;1.90;;;;;;;;;;5033535;28;19917;-75
2021/07/27 03:16:38;;;;;;;4.63;1.93;;;;;;;;;;5048699;28;20471;-75
2021/07/27 03:19:04;;;;;;;4.83;2.07;;;;;;;;;;5015613;28;20187;-76
2021/07/27 03:21:29;;;;;;;4.37;1.80;;;;;;;;;;5048798;28;20068;-74
2021/07/27 03:23:54;;;;;;;4.37;2.03;;;;;;;;;;5033199;28;20052;-74
2021/07/27 03:26:21;;;;;;;4.73;2.00;;;;;;;;;;5033696;28;20087;-74
2021/07/27 03:28:46;;;;;;;4.32;1.90;;;;;;;;;;5033299;28;20112;-75
2021/07/27 03:31:12;;;;;;;4.13;1.70;;;;;;;;;;5031765;28;20444;-75
2021/07/27 03:33:37;;;;;;;3.33;2.00;;;;;;;;;;5048361;28;20021;-75
2021/07/27 03:36:02;;;;;;;3.20;1.90;;;;;;;;;;5048713;28;20884;-75
2021/07/27 03:38:28;;;;;;;4.60;1.90;;;;;;;;;;5048447;28;20097;-74
2021/07/27 03:41:03;;;;;;;3.90;2.10;;;;;;;;;;5032148;28;20025;-74
2021/07/27 03:43:28;;;;;;;4.03;2.00;;;;;;;;;;5048022;28;20053;-75
2021/07/27 03:45:54;;;;;;;3.40;1.90;;;;;;;;;;5032131;28;20068;-75
2021/07/27 03:48:19;;;;;;;3.73;1.97;;;;;;;;;;5032478;28;20056;-76
2021/07/27 03:50:44;;;;;;;3.37;1.80;;;;;;;;;;5048214;28;20052;-75
2021/07/27 03:53:16;;;;;;;3.33;1.70;;;;;;;;;;5048161;28;20048;-75
2021/07/27 03:55:42;;;;;;;4.28;1.80;;;;;;;;;;5031484;28;20025;-75
2021/07/27 03:58:08;;;;;;;3.75;2.00;;;;;;;;;;5031010;28;20030;-75
2021/07/27 04:00:33;;;;;;;3.63;2.13;;;;;;;;;;5048115;28;20057;-75
2021/07/27 04:03:02;;;;;;;3.23;1.70;;;;;;;;;;5048399;28;20049;-74
2021/07/27 04:05:27;;;;;;;3.15;1.90;;;;;;;;;;5048285;28;20359;-74
2021/07/27 04:07:53;;;;;;;4.00;2.00;;;;;;;;;;5031376;28;20068;-75
2021/07/27 04:10:18;;;;;;;4.20;2.10;;;;;;;;;;5052107;22;20127;-77
2021/07/27 04:12:44;;;;;;;4.17;2.10;;;;;;;;;;5013707;28;20104;-76
2021/07/27 04:15:09;;;;;;;3.67;2.07;;;;;;;;;;5030294;28;20072;-76
2021/07/27 04:17:34;;;;;;;4.77;2.13;;;;;;;;;;5014928;28;20396;-77
2021/07/27 04:20:00;;;;;;;4.53;2.43;;;;;;;;;;5013163;28;20068;-77
2021/07/27 04:22:25;;;;;;;4.27;2.20;;;;;;;;;;5012037;28;20109;-77
2021/07/27 04:24:51;;;;;;;4.80;2.23;;;;;;;;;;5024886;28;20057;-77
2021/07/27 04:27:16;;;;;;;4.53;2.10;;;;;;;;;;5028723;28;20149;-76
2021/07/27 04:29:43;;;;;;;3.53;1.93;;;;;;;;;;5031734;28;20056;-77
2021/07/27 04:32:08;;;;;;;5.28;2.22;;;;;;;;;;5031290;28;20034;-77
2021/07/27 04:34:34;;;;;;;4.17;2.03;;;;;;;;;;5031315;28;20035;-76
2021/07/27 04:36:59;;;;;;;4.50;2.07;;;;;;;;;;5031462;28;20053;-77
2021/07/27 04:39:28;;;;;;;4.37;2.30;;;;;;;;;;5025945;28;20072;-77
2021/07/27 04:41:53;;;;;;;4.05;1.90;;;;;;;;;;5031153;28;20033;-77
2021/07/27 04:44:19;;;;;;;4.97;2.13;;;;;;;;;;5029620;28;20060;-76
2021/07/27 04:46:44;;;;;;;3.83;1.90;;;;;;;;;;5031587;28;20068;-76
2021/07/27 04:49:16;;;;;;;4.35;2.13;;;;;;;;;;5031133;28;20056;-76
2021/07/27 04:51:41;;;;;;;4.65;2.10;;;;;;;;;;5045787;28;20029;-76
2021/07/27 04:54:08;;;;;;;5.23;2.03;;;;;;;;;;5024270;28;20087;-77
2021/07/27 04:56:33;;;;;;;4.20;1.85;;;;;;;;;;5029973;28;20109;-76
2021/07/27 04:58:59;;;;;;;5.20;2.13;;;;;;;;;;5012991;28;20030;-77
2021/07/27 05:01:25;;;;;;;4.88;2.30;;;;;;;;;;5014584;28;20037;-76
2021/07/27 05:03:50;;;;;;;4.87;1.90;;;;;;;;;;5031814;28;20120;-76
2021/07/27 05:06:18;;;;;;;6.17;2.20;;;;;;;;;;5015138;28;20053;-77
2021/07/27 05:08:44;;;;;;;6.45;2.10;;;;;;;;;;5018367;28;20030;-77
2021/07/27 05:11:09;;;;;;;4.83;2.20;;;;;;;;;;5031685;28;20497;-76
2021/07/27 05:13:36;;;;;;;3.87;1.87;;;;;;;;;;5015064;28;20488;-77
2021/07/27 05:16:06;;;;;;;6.50;2.15;;;;;;;;;;5031424;28;20022;-76
2021/07/27 05:18:32;;;;;;;5.07;2.05;;;;;;;;;;5032334;28;20070;-76
2021/07/27 05:20:57;;;;;;;4.53;2.10;;;;;;;;;;5001904;28;20065;-77
2021/07/27 05:23:24;;;;;;;5.60;2.20;;;;;;;;;;5031714;28;20064;-76
2021/07/27 05:25:49;;;;;;;4.05;2.10;;;;;;;;;;5050650;28;20025;-77
2021/07/27 05:28:14;;;;;;;4.30;2.00;;;;;;;;;;5017649;28;20029;-77
2021/07/27 05:30:40;;;;;;;4.63;2.23;;;;;;;;;;5035183;28;20033;-77
2021/07/27 05:33:05;;;;;;;4.90;2.10;;;;;;;;;;5032994;28;20022;-77
2021/07/27 05:35:30;;;;;;;5.63;2.07;;;;;;;;;;5023291;28;20108;-76
2021/07/27 05:37:56;;;;;;;5.60;1.93;;;;;;;;;;5033992;28;20029;-75
2021/07/27 05:40:21;;;;;;;4.53;1.90;;;;;;;;;;5035715;28;20060;-76
2021/07/27 05:42:46;;;;;;;5.60;2.30;;;;;;;;;;5050877;28;20068;-76
2021/07/27 05:45:12;;;;;;;4.03;1.70;;;;;;;;;;5034447;28;20064;-76
2021/07/27 05:47:37;;;;;;;4.17;1.87;;;;;;;;;;5035688;28;20021;-76
2021/07/27 05:50:04;;;;;;;5.50;2.00;;;;;;;;;;5021437;28;20121;-75
2021/07/27 05:52:29;;;;;;;;;;;;;;;;;;5034543;28;20056;-76
2021/07/27 05:54:54;;;;;;;5.07;1.90;;;;;;;;;;5026207;28;19957;-75
2021/07/27 05:57:20;;;;;;;5.90;2.07;;;;;;;;;;5014329;28;20480;-75
2021/07/27 05:59:45;;;;;;;5.13;1.90;;;;;;;;;;5030699;28;20057;-76
2021/07/27 06:02:15;;;;;;;4.57;2.23;;;;;;;;;;5036668;22;20053;-75
2021/07/27 06:04:41;;;;;;;4.93;2.03;;;;;;;;;;5014074;28;20037;-75
2021/07/27 06:07:06;;;;;;;4.23;1.90;;;;;;;;;;5014923;28;20369;-76
2021/07/27 06:09:31;;;;;;;5.63;1.90;;;;;;;;;;5000858;28;20105;-75
2021/07/27 06:11:57;;;;;;;4.43;1.93;;;;;;;;;;4995075;28;20485;-76
2021/07/27 06:14:22;;;;;;;6.73;2.20;;;;;;;;;;5010845;28;20068;-76
2021/07/27 06:16:47;;;;;;;4.63;1.83;;;;;;;;;;5011078;28;20053;-75
2021/07/27 06:19:13;;;;;;;5.43;2.13;;;;;;;;;;5014272;28;20034;-76
2021/07/27 06:21:39;;;;;;;5.47;2.17;;;;;;;;;;5014786;28;20115;-75
2021/07/27 06:24:08;;;;;;;5.03;2.30;;;;;;;;;;4996133;28;20397;-75
2021/07/27 06:26:33;;;;;;;5.18;2.00;;;;;;;;;;4994168;28;20030;-76
2021/07/27 06:29:01;;;;;;;5.53;2.30;;;;;;;;;;4994144;28;20034;-76
2021/07/27 06:31:26;;;;;;;4.57;2.20;;;;;;;;;;5010121;28;20080;-75
2021/07/27 06:33:52;;;;;;;4.27;2.13;;;;;;;;;;5012026;28;20499;-76
2021/07/27 06:36:17;;;;;;;4.67;2.10;;;;;;;;;;5011073;28;20025;-75
2021/07/27 06:38:43;;;;;;;;;;;;;;;;;;5020342;28;20136;-76
2021/07/27 06:41:09;;;;;;;5.90;2.40;;;;;;;;;;4997406;28;19959;-76
2021/07/27 06:43:35;;;;;;;5.15;2.00;;;;;;;;;;5004492;28;20277;-75
2021/07/27 06:46:00;;;;;;;4.23;1.90;;;;;;;;;;4994881;28;20068;-75
2021/07/27 06:48:26;;;;;;;3.83;1.83;;;;;;;;;;5005821;28;20057;-75
2021/07/27 06:50:51;;;;;;;5.73;2.23;;;;;;;;;;5012151;28;20025;-75
2021/07/27 06:53:17;;;;;;;6.10;2.23;;;;;;;;;;4983959;28;20026;-75
2021/07/27 06:55:42;;;;;;;5.80;2.20;;;;;;;;;;4993715;28;20077;-76
2021/07/27 06:58:08;;;;;;;4.80;2.20;;;;;;;;;;4993596;28;20349;-76
2021/07/27 07:00:33;;;;;;;4.47;2.07;;;;;;;;;;4993637;28;20477;-76
2021/07/27 07:02:58;;;;;;;4.60;1.83;;;;;;;;;;4994471;28;20129;-75
2021/07/27 07:05:23;;;;;;;5.07;2.13;;;;;;;;;;5006247;28;20064;-76
2021/07/27 07:07:49;;;;;;;4.53;1.80;;;;;;;;;;5009556;28;20049;-76
2021/07/27 07:10:14;;;;;;;6.80;2.40;;;;;;;;;;5011637;28;20049;-76
2021/07/27 07:12:40;;;;;;;6.77;2.57;;;;;;;;;;4996575;28;20489;-76
2021/07/27 07:15:05;;;;;;;9.30;3.00;;;;;;;;;;5004443;28;20046;-74
2021/07/27 07:17:31;;;;;;;5.27;2.17;;;;;;;;;;5005714;28;20030;-74
2021/07/27 07:19:56;;;;;;;5.43;2.50;;;;;;;;;;4993301;28;20446;-75
2021/07/27 07:22:21;;;;;;;8.17;2.27;;;;;;;;;;4997374;28;20026;-75
2021/07/27 07:24:47;;;;;;;6.40;2.43;;;;;;;;;;5013187;28;20034;-75
2021/07/27 07:27:12;;;;;;;4.40;1.97;;;;;;;;;;4994762;28;20458;-74
2021/07/27 07:29:38;;;;;;;7.97;2.67;;;;;;;;;;4993100;28;20030;-75
2021/07/27 07:32:03;;;;;;;5.60;2.17;;;;;;;;;;4994127;28;20026;-75
2021/07/27 07:34:29;;;;;;;4.65;2.00;;;;;;;;;;4994953;28;20041;-74
2021/07/27 07:36:54;;;;;;;5.03;2.20;;;;;;;;;;5026968;28;20433;-74
2021/07/27 07:39:19;;;;;;;6.03;2.20;;;;;;;;;;4998236;28;20116;-74
2021/07/27 07:41:45;;;;;;;4.93;2.00;;;;;;;;;;4992982;28;20022;-75
2021/07/27 07:44:10;;;;;;;5.13;2.10;;;;;;;;;;4978294;28;20444;-75
2021/07/27 07:46:35;;;;;;;4.13;1.90;;;;;;;;;;5011089;28;20022;-75
2021/07/27 07:49:01;;;;;;;5.23;2.20;;;;;;;;;;4993963;28;20053;-75
2021/07/27 07:51:26;;;;;;;5.10;2.20;;;;;;;;;;5018560;28;20064;-75
2021/07/27 07:53:51;;;;;;;4.53;1.83;;;;;;;;;;4996257;28;20018;-75
2021/07/27 07:56:17;;;;;;;5.10;2.30;;;;;;;;;;4993857;28;20058;-75
2021/07/27 07:58:44;;;;;;;6.27;2.60;;;;;;;;;;5010848;28;20113;-75
2021/07/27 08:01:09;;;;;;;5.50;2.10;;;;;;;;;;5007947;28;20550;-74
2021/07/27 08:03:35;;;;;;;6.87;2.17;;;;;;;;;;5020448;28;20030;-74
2021/07/27 08:06:00;;;;;;;4.40;2.00;;;;;;;;;;5024594;28;20556;-74
2021/07/27 08:08:25;;;;;;;4.90;1.83;;;;;;;;;;5009132;28;20033;-74
2021/07/27 08:10:51;;;;;;;4.97;1.93;;;;;;;;;;5015980;28;20061;-74
2021/07/27 08:13:16;;;;;;;4.10;2.00;;;;;;;;;;5013012;28;20053;-74
2021/07/27 08:15:41;;;;;;;3.70;1.80;;;;;;;;;;5011962;28;20061;-74
2021/07/27 08:18:07;;;;;;;6.07;2.27;;;;;;;;;;5005227;28;20081;-74
2021/07/27 08:20:32;;;;;;;3.40;1.70;;;;;;;;;;4992472;28;20030;-75
2021/07/27 08:22:58;;;;;;;5.10;2.03;;;;;;;;;;5009569;28;20441;-74
2021/07/27 08:25:23;;;;;;;6.00;2.13;;;;;;;;;;5007209;28;20084;-74
2021/07/27 08:27:49;;;;;;;4.10;1.90;;;;;;;;;;5006832;28;20463;-74
2021/07/27 08:30:14;;;;;;;5.43;2.20;;;;;;;;;;5004090;28;20511;-74
2021/07/27 08:32:50;;;;;;;6.40;2.10;;;;;;;;;;5006868;28;20049;-74
2021/07/27 08:35:16;;;;;;;4.30;1.98;;;;;;;;;;5022524;28;20061;-74
2021/07/27 08:37:41;;;;;;;6.15;2.13;;;;;;;;;;5026576;28;20477;-74
2021/07/27 08:40:07;;;;;;;5.17;2.03;;;;;;;;;;5014907;28;20040;-74
2021/07/27 08:42:33;;;;;;;5.38;2.35;;;;;;;;;;4997491;28;20037;-74
2021/07/27 08:44:59;;;;;;;6.45;2.10;;;;;;;;;;4979910;28;20031;-74
2021/07/27 08:47:24;;;;;;;3.77;1.67;;;;;;;;;;4996279;28;20061;-74
2021/07/27 08:49:49;;;;;;;5.07;2.07;;;;;;;;;;4980101;28;20026;-75
2021/07/27 08:52:15;;;;;;;4.73;1.90;;;;;;;;;;4996323;28;20157;-74
2021/07/27 08:54:43;;;;;;;5.77;2.27;;;;;;;;;;5015593;28;20061;-74
2021/07/27 08:57:12;;;;;;;4.28;1.98;;;;;;;;;;4999547;28;20026;-74
2021/07/27 08:59:38;;;;;;;5.57;2.05;;;;;;;;;;4983022;28;20217;-74
2021/07/27 09:02:03;;;;;;;5.03;1.90;;;;;;;;;;5015631;28;20552;-75
2021/07/27 09:04:29;;;;;;;5.10;2.00;;;;;;;;;;5016522;28;20037;-75
2021/07/27 09:07:01;;;;;;;3.78;2.00;;;;;;;;;;4998984;28;20421;-74
2021/07/27 09:09:29;;;;;;;5.82;2.15;;;;;;;;;;4999592;28;20038;-74
2021/07/27 09:11:55;;;;;;;5.85;2.28;;;;;;;;;;4999073;28;20489;-74
2021/07/27 09:14:21;;;;;;;6.67;1.93;;;;;;;;;;5015599;28;20030;-74
2021/07/27 09:16:53;;;;;;;5.30;1.77;;;;;;;;;;5016217;28;20030;-74
2021/07/27 09:19:18;;;;;;;4.13;1.98;;;;;;;;;;4999579;28;20080;-75
2021/07/27 09:21:44;;;;;;;5.37;2.00;;;;;;;;;;4998715;28;20061;-74
2021/07/27 09:24:09;;;;;;;4.40;2.07;;;;;;;;;;4998334;28;20050;-74
2021/07/27 09:26:35;;;;;;;6.43;2.30;;;;;;;;;;5009439;28;20029;-75
2021/07/27 09:29:04;;;;;;;4.53;2.00;;;;;;;;;;5015808;28;20026;-74
2021/07/27 09:31:30;;;;;;;6.07;2.00;;;;;;;;;;4996508;28;20025;-74
2021/07/27 09:33:55;;;;;;;4.87;2.00;;;;;;;;;;5001032;28;20386;-74
2021/07/27 09:36:26;;;;;;;4.33;2.03;;;;;;;;;;4996332;28;20046;-74
2021/07/27 09:38:59;;;;;;;4.65;2.00;;;;;;;;;;4999134;28;20128;-75
2021/07/27 09:41:29;;;;;;;4.60;2.00;;;;;;;;;;4995607;28;20018;-74
2021/07/27 09:43:54;;;;;;;4.47;1.98;;;;;;;;;;5028915;28;20392;-74
2021/07/27 09:46:20;;;;;;;5.73;2.07;;;;;;;;;;4996908;28;20037;-75
2021/07/27 09:48:45;;;;;;;3.83;1.77;;;;;;;;;;4995214;28;20054;-75
2021/07/27 09:51:11;;;;;;;4.77;2.03;;;;;;;;;;5011163;28;20050;-75
2021/07/27 09:53:36;;;;;;;3.97;1.80;;;;;;;;;;4994699;28;20301;-74
2021/07/27 09:56:02;;;;;;;3.83;1.77;;;;;;;;;;5016495;28;20452;-74
2021/07/27 09:58:28;;;;;;;4.30;2.00;;;;;;;;;;5014127;28;20048;-74
2021/07/27 10:01:06;;;;;;;3.38;1.55;;;;;;;;;;4997471;28;20054;-74
2021/07/27 10:03:35;;;;;;;3.65;1.58;;;;;;;;;;5012601;28;20053;-74
2021/07/27 10:06:01;;;;;;;4.15;2.00;;;;;;;;;;5030263;28;20017;-74
2021/07/27 10:08:31;;;;;;;5.03;1.95;;;;;;;;;;5014108;28;20029;-74
2021/07/27 10:11:05;;;;;;;3.78;1.67;;;;;;;;;;5091410;23;20070;-74
2021/07/27 10:13:35;;;;;;;6.22;1.70;;;;;;;;;;4995604;28;20027;-75
2021/07/27 10:16:00;;;;;;;3.72;1.80;;;;;;;;;;4988116;28;20033;-75
2021/07/27 10:18:33;;;;;;;4.53;1.83;;;;;;;;;;4995424;28;20037;-75
2021/07/27 10:21:23;;;;;;;5.28;1.88;;;;;;;;;;4994069;28;20026;-77
2021/07/27 10:23:48;;;;;;;4.15;1.80;;;;;;;;;;5026361;28;20034;-76
2021/07/27 10:26:23;;;;;;;5.63;2.20;;;;;;;;;;5004738;28;20030;-76
2021/07/27 10:28:52;;;;;;;5.22;1.90;;;;;;;;;;4976275;28;20113;-76
2021/07/27 10:31:17;;;;;;;5.63;1.95;;;;;;;;;;4992241;28;20029;-77
2021/07/27 10:33:51;;;;;;;4.40;1.90;;;;;;;;;;4977130;28;20120;-76
2021/07/27 10:36:27;;;;;;;5.30;2.30;;;;;;;;;;4989762;28;20087;-76
2021/07/27 10:38:53;;;;;;;5.43;1.98;;;;;;;;;;4990341;28;20058;-75
2021/07/27 10:41:18;;;;;;;4.67;1.87;;;;;;;;;;5008297;28;20029;-75
2021/07/27 10:43:44;;;;;;;4.37;1.67;;;;;;;;;;4990291;28;20484;-75
2021/07/27 10:46:10;;;;;;;5.47;1.93;;;;;;;;;;4989875;28;20389;-75
2021/07/27 10:48:36;;;;;;;5.03;1.95;;;;;;;;;;4991315;28;20112;-75
2021/07/27 10:51:02;;;;;;;5.18;1.88;;;;;;;;;;4995920;28;20369;-75
2021/07/27 10:53:32;;;;;;;2.90;1.47;;;;;;;;;;5006583;28;20025;-76
2021/07/27 10:56:01;;;;;;;6.20;2.00;;;;;;;;;;5007457;28;20044;-76
2021/07/27 10:58:26;;;;;;;5.18;2.05;;;;;;;;;;5021498;28;20037;-76
2021/07/27 11:00:51;;;;;;;4.00;1.90;;;;;;;;;;5008177;28;20064;-75
2021/07/27 11:03:29;;;;;;;4.70;1.97;;;;;;;;;;5026091;28;20168;-75
2021/07/27 11:06:01;;;;;;;3.63;1.70;;;;;;;;;;5009500;28;20057;-74
2021/07/27 11:08:26;;;;;;;5.32;2.08;;;;;;;;;;4999882;28;20358;-75
2021/07/27 11:11:05;;;;;;;5.40;1.90;;;;;;;;;;4992035;28;20112;-75
2021/07/27 11:13:30;;;;;;;4.95;1.80;;;;;;;;;;5014082;28;20029;-75
2021/07/27 11:15:58;;;;;;;4.70;2.10;;;;;;;;;;5012843;28;20081;-75
2021/07/27 11:18:23;;;;;;;4.95;1.92;;;;;;;;;;5012991;28;20025;-76
2021/07/27 11:20:50;;;;;;;5.23;1.90;;;;;;;;;;4996437;28;20057;-75
2021/07/27 11:23:19;;;;;;;4.82;1.95;;;;;;;;;;4996391;28;20029;-75
2021/07/27 11:25:52;;;;;;;4.25;1.90;;;;;;;;;;5012897;28;20117;-75
2021/07/27 11:28:17;;;;;;;4.43;1.80;;;;;;;;;;5012829;28;20037;-75
2021/07/27 11:30:43;;;;;;;3.77;1.80;;;;;;;;;;4980167;28;20022;-75
2021/07/27 11:33:09;;;;;;;5.03;2.10;;;;;;;;;;5012481;28;20022;-75
2021/07/27 11:35:47;;;;;;;4.60;2.10;;;;;;;;;;4996594;28;20079;-75
2021/07/27 11:38:28;;;;;;;4.68;1.90;;;;;;;;;;4996283;28;20053;-75
2021/07/27 11:41:09;;;;;;;3.58;1.80;;;;;;;;;;4997050;28;20022;-74
2021/07/27 11:43:39;;;;;;;5.53;1.92;;;;;;;;;;4996256;28;20026;-75
2021/07/27 11:46:08;;;;;;;4.47;2.05;;;;;;;;;;4996037;28;20028;-75
2021/07/27 11:48:38;;;;;;;5.22;2.20;;;;;;;;;;5012255;28;20026;-75
2021/07/27 11:51:03;;;;;;;5.25;2.20;;;;;;;;;;4996420;28;20025;-75
2021/07/27 11:53:31;;;;;;;3.72;1.80;;;;;;;;;;5012316;28;20076;-75
2021/07/27 11:55:57;;;;;;;5.22;2.00;;;;;;;;;;4996570;28;20129;-75
2021/07/27 11:58:26;;;;;;;5.13;2.10;;;;;;;;;;4979700;28;20018;-75
2021/07/27 12:00:58;;;;;;;4.40;1.92;;;;;;;;;;5012225;28;20033;-75
2021/07/27 12:03:24;;;;;;;4.20;1.90;;;;;;;;;;5012090;28;20022;-75
2021/07/27 12:05:49;;;;;;;4.17;1.70;;;;;;;;;;5012826;28;20526;-75
2021/07/27 12:08:15;;;;;;;3.57;1.80;;;;;;;;;;4979776;28;20022;-75
2021/07/27 12:10:40;;;;;;;4.20;1.83;;;;;;;;;;4978892;28;20504;-75
2021/07/27 12:13:05;;;;;;;4.13;2.00;;;;;;;;;;5012022;28;20568;-75
2021/07/27 12:15:31;;;;;;;4.50;1.93;;;;;;;;;;5013278;28;20065;-75
2021/07/27 12:17:56;;;;;;;3.97;1.93;;;;;;;;;;4995769;28;20080;-76
2021/07/27 12:20:21;;;;;;;4.73;1.97;;;;;;;;;;4995730;28;20022;-75
2021/07/27 12:22:47;;;;;;;4.80;2.10;;;;;;;;;;5012063;28;20484;-75
2021/07/27 12:25:12;;;;;;;4.83;2.07;;;;;;;;;;5012040;28;20108;-75
2021/07/27 12:27:38;;;;;;;3.97;1.88;;;;;;;;;;5013644;28;20032;-75
2021/07/27 12:30:04;;;;;;;5.82;2.08;;;;;;;;;;4995890;28;20025;-75
2021/07/27 12:32:30;;;;;;;4.10;1.83;;;;;;;;;;4995606;28;20033;-75
2021/07/27 12:34:55;;;;;;;4.97;1.80;;;;;;;;;;5012136;28;20436;-75
2021/07/27 12:37:20;;;;;;;5.70;2.10;;;;;;;;;;5013038;28;20479;-75
2021/07/27 12:39:46;;;;;;;4.20;1.80;;;;;;;;;;5012139;28;20080;-75
2021/07/27 12:42:12;;;;;;;5.82;1.95;;;;;;;;;;4995672;28;20034;-75
2021/07/27 12:44:37;;;;;;;3.97;1.83;;;;;;;;;;4995523;28;20117;-75
2021/07/27 12:47:02;;;;;;;4.77;2.17;;;;;;;;;;4995583;28;20030;-75
2021/07/27 12:49:28;;;;;;;4.37;2.03;;;;;;;;;;5011775;28;20109;-75
2021/07/27 12:51:53;;;;;;;3.83;1.57;;;;;;;;;;5011728;28;20074;-75
2021/07/27 12:54:18;;;;;;;3.77;1.83;;;;;;;;;;4995475;28;20072;-75
2021/07/27 12:56:44;;;;;;;4.13;1.83;;;;;;;;;;5012837;28;20054;-75
2021/07/27 12:59:09;;;;;;;4.90;1.77;;;;;;;;;;4995505;28;20054;-75
2021/07/27 13:01:34;;;;;;;4.53;1.87;;;;;;;;;;4995349;28;20453;-75
2021/07/27 13:04:00;;;;;;;3.83;1.80;;;;;;;;;;4995802;28;20069;-76
2021/07/27 13:06:26;;;;;;;4.38;2.10;;;;;;;;;;5011622;28;20393;-75
2021/07/27 13:08:51;;;;;;;5.47;2.07;;;;;;;;;;4995314;28;20053;-75
2021/07/27 13:11:16;;;;;;;4.90;1.83;;;;;;;;;;4995205;28;20504;-75
2021/07/27 13:13:42;;;;;;;5.20;2.27;;;;;;;;;;4995080;28;20519;-75
2021/07/27 13:16:07;;;;;;;4.70;2.00;;;;;;;;;;4979068;28;20054;-76
2021/07/27 13:18:33;;;;;;;4.83;1.97;;;;;;;;;;5011430;28;20099;-75
2021/07/27 13:20:59;;;;;;;4.68;1.83;;;;;;;;;;5011586;28;20030;-75
2021/07/27 13:23:24;;;;;;;3.73;1.90;;;;;;;;;;5014221;28;20056;-75
2021/07/27 13:25:49;;;;;;;4.70;2.17;;;;;;;;;;4998623;28;20053;-75
2021/07/27 13:28:15;;;;;;;4.13;1.80;;;;;;;;;;5015011;28;20069;-75
2021/07/27 13:30:40;;;;;;;3.97;1.83;;;;;;;;;;5014851;28;20049;-75
2021/07/27 13:33:06;;;;;;;5.40;2.20;;;;;;;;;;5014831;28;20056;-75
2021/07/27 13:35:31;;;;;;;4.57;1.77;;;;;;;;;;4998364;28;20033;-75
2021/07/27 13:37:57;;;;;;;5.07;2.13;;;;;;;;;;4998589;28;20026;-75
2021/07/27 13:40:23;;;;;;;3.88;2.05;;;;;;;;;;4998526;28;20046;-75
2021/07/27 13:42:49;;;;;;;4.00;1.83;;;;;;;;;;4982004;28;20117;-75
2021/07/27 13:45:14;;;;;;;;;;;;;;;;;;5015163;28;20026;-75
2021/07/27 13:47:40;;;;;;;5.20;2.10;;;;;;;;;;5031482;28;20368;-75
2021/07/27 13:50:05;;;;;;;5.37;2.17;;;;;;;;;;4998650;28;20060;-76
2021/07/27 13:52:31;;;;;;;4.03;2.10;;;;;;;;;;4998092;28;20036;-75
2021/07/27 13:54:56;;;;;;;4.13;2.20;;;;;;;;;;5014415;28;20054;-75
2021/07/27 13:57:21;;;;;;;5.27;2.13;;;;;;;;;;5015487;28;20062;-75
2021/07/27 13:59:47;;;;;;;5.90;2.03;;;;;;;;;;4997982;28;20065;-75
2021/07/27 14:02:12;;;;;;;3.83;1.92;;;;;;;;;;5014670;28;20022;-76
2021/07/27 14:04:38;;;;;;;4.77;1.87;;;;;;;;;;5014264;28;20041;-75
2021/07/27 14:07:03;;;;;;;5.03;2.00;;;;;;;;;;5014289;28;20022;-75
2021/07/27 14:09:29;;;;;;;4.87;2.03;;;;;;;;;;5014181;28;20121;-75
2021/07/27 14:11:54;;;;;;;4.43;2.00;;;;;;;;;;5013959;28;20037;-75
2021/07/27 14:14:19;;;;;;;4.10;2.07;;;;;;;;;;4993681;28;20031;-75
2021/07/27 14:16:45;;;;;;;3.90;1.80;;;;;;;;;;5005143;28;20105;-76
2021/07/27 14:19:10;;;;;;;2.93;1.57;;;;;;;;;;4995201;28;20479;-75
2021/07/27 14:21:35;;;;;;;4.13;1.80;;;;;;;;;;5012311;28;20470;-75
2021/07/27 14:24:01;;;;;;;5.50;2.13;;;;;;;;;;5013116;28;20049;-75
2021/07/27 14:26:26;;;;;;;3.60;1.63;;;;;;;;;;4994155;28;20084;-76
2021/07/27 14:28:51;;;;;;;5.17;2.20;;;;;;;;;;4973185;28;20121;-75
2021/07/27 14:31:17;;;;;;;4.60;2.13;;;;;;;;;;4981484;28;20029;-75
2021/07/27 14:33:42;;;;;;;5.20;2.23;;;;;;;;;;5001715;28;20061;-75
2021/07/27 14:36:08;;;;;;;4.30;1.97;;;;;;;;;;5010401;28;20140;-75
2021/07/27 14:38:34;;;;;;;4.38;2.00;;;;;;;;;;4994023;28;20100;-75
2021/07/27 14:41:00;;;;;;;5.50;2.00;;;;;;;;;;4986257;28;20477;-75
2021/07/27 14:43:26;;;;;;;4.15;1.90;;;;;;;;;;4997167;28;20032;-76
2021/07/27 14:45:51;;;;;;;4.83;2.10;;;;;;;;;;4991020;28;20038;-75
2021/07/27 14:48:17;;;;;;;5.60;2.10;;;;;;;;;;5005882;28;20033;-75
2021/07/27 14:50:42;;;;;;;5.33;2.00;;;;;;;;;;5011930;28;20045;-77
2021/07/27 14:53:07;;;;;;;4.77;2.00;;;;;;;;;;5003560;28;20069;-75
2021/07/27 14:55:34;;;;;;;3.97;1.80;;;;;;;;;;5029914;28;20053;-76
2021/07/27 14:57:59;;;;;;;4.07;2.00;;;;;;;;;;5029507;28;20466;-75
2021/07/27 15:00:25;;;;;;;4.07;1.87;;;;;;;;;;5014207;28;20060;-75